Time;durP1;ratioP1;P1;durP2;ratioP2;P2;SDS_P1;SDS_P2;PMS_P1;PMS_P2;Temp;Humidity;BMP_temperature;BMP_pressure;BME280_temperature;BME280_humidity;BME280_pressure;Samples;Min_cycle;Max_cycle;Signal;HPM_P1;HPM_P2
2021/12/01 00:00:33;;;;;;;34.72;28.92;;;10.50;92.10;;;;;;5074752;28;20119;-70
2021/12/01 00:02:59;;;;;;;36.03;29.17;;;10.50;92.10;;;;;;5092437;28;20036;-71
2021/12/01 00:05:28;;;;;;;33.58;27.98;;;10.50;92.10;;;;;;5093818;28;20028;-71
2021/12/01 00:07:54;;;;;;;29.08;24.33;;;10.50;92.10;;;;;;5088040;28;20520;-71
2021/12/01 00:10:22;;;;;;;31.60;24.52;;;10.50;92.10;;;;;;5089314;28;20391;-72
2021/12/01 00:12:48;;;;;;;27.83;22.75;;;10.50;92.20;;;;;;5071240;28;20028;-72
2021/12/01 00:15:14;;;;;;;28.73;23.38;;;10.60;92.20;;;;;;5087328;28;20032;-71
2021/12/01 00:17:40;;;;;;;23.90;20.90;;;10.60;92.20;;;;;;5089211;28;20064;-71
2021/12/01 00:20:09;;;;;;;24.60;21.15;;;10.60;92.30;;;;;;5076296;28;20471;-70
2021/12/01 00:22:36;;;;;;;19.90;17.85;;;10.60;92.30;;;;;;5097317;28;20073;-70
2021/12/01 00:25:02;;;;;;;19.35;16.65;;;10.60;92.40;;;;;;5092923;28;20055;-70
2021/12/01 00:27:28;;;;;;;18.55;16.17;;;10.60;92.40;;;;;;5072563;28;20035;-70
2021/12/01 00:29:56;;;;;;;17.38;15.68;;;10.60;92.50;;;;;;5090129;28;20032;-70
2021/12/01 00:32:22;;;;;;;17.67;15.63;;;10.60;92.50;;;;;;5074286;28;20098;-70
2021/12/01 00:34:48;;;;;;;16.50;14.80;;;10.60;92.50;;;;;;5110521;28;20031;-70
2021/12/01 00:37:14;;;;;;;14.23;12.80;;;10.60;92.50;;;;;;5083949;28;20036;-70
2021/12/01 00:39:39;;;;;;;14.52;13.02;;;10.60;92.50;;;;;;5072294;28;20081;-70
2021/12/01 00:42:06;;;;;;;12.85;11.60;;;10.60;92.60;;;;;;5090722;28;20363;-70
2021/12/01 00:44:34;;;;;;;11.07;10.07;;;10.60;92.60;;;;;;5092472;28;20028;-70
2021/12/01 00:49:30;;;;;;;10.13;9.13;;;10.60;92.60;;;;;;5089981;28;20058;-70
2021/12/01 00:51:57;;;;;;;9.57;8.65;;;10.60;92.60;;;;;;5071463;28;20043;-71
2021/12/01 00:54:23;;;;;;;9.13;8.20;;;10.70;92.60;;;;;;5089395;28;20050;-70
2021/12/01 00:56:49;;;;;;;8.23;7.53;;;10.60;92.60;;;;;;5103443;28;20031;-70
2021/12/01 00:59:16;;;;;;;8.40;7.70;;;10.70;92.60;;;;;;5092232;28;20035;-70
2021/12/01 01:01:43;;;;;;;8.82;7.95;;;10.70;92.60;;;;;;5071455;28;20023;-70
2021/12/01 01:04:09;;;;;;;8.05;7.25;;;10.70;92.60;;;;;;5071563;28;20028;-70
2021/12/01 01:06:37;;;;;;;8.60;7.80;;;10.70;92.60;;;;;;5090351;28;20036;-70
2021/12/01 01:09:05;;;;;;;7.32;6.65;;;10.70;92.60;;;;;;5071653;28;20394;-70
2021/12/01 01:17:01;;;;;;;6.63;6.03;;;10.70;92.60;;;;;;5110231;28;20148;-70
2021/12/01 01:19:27;;;;;;;6.20;5.70;;;10.70;92.60;;;;;;5110321;28;20070;-70
2021/12/01 01:21:55;;;;;;;7.82;6.97;;;10.70;92.60;;;;;;5110146;28;20028;-70
2021/12/01 01:24:21;;;;;;;7.50;6.80;;;10.70;92.60;;;;;;5109683;28;20031;-70
2021/12/01 01:26:48;;;;;;;7.97;6.70;;;10.70;92.60;;;;;;5091854;28;20034;-70
2021/12/01 01:29:13;;;;;;;7.78;6.97;;;10.70;92.60;;;;;;5092413;28;20063;-70
2021/12/01 01:31:39;;;;;;;8.80;6.97;;;10.70;92.60;;;;;;5091935;28;20495;-70
2021/12/01 01:34:05;;;;;;;7.65;6.95;;;10.70;92.50;;;;;;5075090;28;20052;-71
2021/12/01 01:36:31;;;;;;;8.55;6.75;;;10.70;92.50;;;;;;5088523;28;20012;-71
2021/12/01 01:38:58;;;;;;;7.15;6.55;;;10.80;92.50;;;;;;5089968;28;20446;-71
2021/12/01 01:41:24;;;;;;;7.40;6.70;;;10.80;92.40;;;;;;5089178;28;20036;-71
2021/12/01 01:43:51;;;;;;;7.15;6.45;;;10.80;92.40;;;;;;5086016;28;20069;-72
2021/12/01 01:46:17;;;;;;;6.68;6.07;;;10.80;92.40;;;;;;5087962;28;20043;-72
2021/12/01 01:48:54;;;;;;;6.70;6.10;;;10.80;92.40;;;;;;5088048;28;20098;-72
2021/12/01 01:51:25;;;;;;;6.40;5.80;;;10.80;92.30;;;;;;5089942;28;20471;-70
2021/12/01 01:53:53;;;;;;;5.07;4.57;;;10.80;92.30;;;;;;5088323;28;20028;-70
2021/12/01 01:56:19;;;;;;;5.15;4.47;;;10.80;92.20;;;;;;5102226;28;20039;-71
2021/12/01 01:58:46;;;;;;;5.55;4.78;;;10.80;92.20;;;;;;5090153;28;20016;-71
2021/12/01 02:01:27;;;;;;;4.28;3.88;;;10.80;92.20;;;;;;5074905;28;20031;-71
2021/12/01 02:03:54;;;;;;;4.45;4.05;;;10.80;92.00;;;;;;5089400;28;20471;-71
2021/12/01 02:06:23;;;;;;;6.18;3.95;;;10.80;92.00;;;;;;5091859;28;20081;-72
2021/12/01 02:08:51;;;;;;;4.80;3.67;;;10.80;92.00;;;;;;5074465;28;20089;-71
2021/12/01 02:11:18;;;;;;;3.53;3.22;;;10.70;92.00;;;;;;5092692;28;20028;-72
2021/12/01 02:13:45;;;;;;;4.00;3.70;;;10.70;92.00;;;;;;5074815;28;20415;-71
2021/12/01 02:16:12;;;;;;;3.70;3.40;;;10.70;92.00;;;;;;5092822;28;20086;-71
2021/12/01 02:18:39;;;;;;;3.75;3.40;;;10.70;92.00;;;;;;5093336;28;20036;-70
2021/12/01 02:21:17;;;;;;;3.80;3.33;;;10.70;91.90;;;;;;5092873;28;20024;-70
2021/12/01 02:23:45;;;;;;;4.38;3.80;;;10.80;91.90;;;;;;5074044;28;20066;-70
2021/12/01 02:26:13;;;;;;;4.70;3.85;;;10.70;91.80;;;;;;5091811;28;20504;-71
2021/12/01 02:28:40;;;;;;;5.57;4.22;;;10.70;91.80;;;;;;5074747;28;20433;-71
2021/12/01 02:31:06;;;;;;;4.22;3.83;;;10.70;91.80;;;;;;5074396;28;20040;-70
2021/12/01 02:33:32;;;;;;;4.20;3.90;;;10.70;91.80;;;;;;5092421;28;20032;-71
2021/12/01 02:35:58;;;;;;;3.72;3.28;;;10.70;91.80;;;;;;5056091;28;20040;-70
2021/12/01 02:38:24;;;;;;;3.92;3.50;;;10.60;91.80;;;;;;5093059;28;20458;-70
2021/12/01 02:40:50;;;;;;;3.85;3.47;;;10.60;91.70;;;;;;5074050;28;20040;-70
2021/12/01 02:43:16;;;;;;;3.85;3.50;;;10.70;91.70;;;;;;5054463;28;20039;-71
2021/12/01 02:45:43;;;;;;;3.30;3.05;;;10.60;91.70;;;;;;5064369;28;20032;-68
2021/12/01 02:48:13;;;;;;;3.53;3.22;;;10.60;91.70;;;;;;5092601;28;20046;-68
2021/12/01 02:50:42;;;;;;;3.28;2.83;;;10.60;91.70;;;;;;5091787;28;20032;-69
2021/12/01 02:53:08;;;;;;;3.60;3.30;;;10.60;91.70;;;;;;5092356;28;20093;-68
2021/12/01 02:55:40;;;;;;;3.67;3.20;;;10.60;91.70;;;;;;5091251;28;20036;-70
2021/12/01 02:58:06;;;;;;;3.45;3.20;;;10.50;91.60;;;;;;5072765;28;20020;-70
2021/12/01 03:00:33;;;;;;;4.35;3.60;;;10.50;91.60;;;;;;5074877;28;20043;-70
2021/12/01 03:02:59;;;;;;;3.35;3.10;;;10.50;91.50;;;;;;5073141;28;20023;-71
2021/12/01 03:05:25;;;;;;;3.38;3.08;;;10.50;91.60;;;;;;5073682;28;20042;-70
2021/12/01 03:07:52;;;;;;;3.00;2.80;;;10.40;91.60;;;;;;5073730;28;20119;-70
2021/12/01 03:10:18;;;;;;;3.83;3.28;;;10.40;91.60;;;;;;5091783;28;20032;-69
2021/12/01 03:12:44;;;;;;;3.20;3.00;;;10.40;91.50;;;;;;5092451;28;20581;-69
2021/12/01 03:15:12;;;;;;;3.22;3.00;;;10.40;91.60;;;;;;5071276;28;20032;-69
2021/12/01 03:17:37;;;;;;;3.65;3.35;;;10.40;91.60;;;;;;5090782;28;20131;-69
2021/12/01 03:20:08;;;;;;;3.33;3.03;;;10.30;91.50;;;;;;5073234;28;20395;-69
2021/12/01 03:22:33;;;;;;;2.92;2.72;;;10.30;91.50;;;;;;5091440;28;20036;-69
2021/12/01 03:24:59;;;;;;;3.03;2.83;;;10.30;91.40;;;;;;5090033;28;20044;-69
2021/12/01 03:27:25;;;;;;;2.90;2.70;;;10.30;91.40;;;;;;5090962;28;20067;-69
2021/12/01 03:29:51;;;;;;;3.17;2.78;;;10.30;91.40;;;;;;5090786;28;20123;-69
2021/12/01 03:32:19;;;;;;;2.92;2.72;;;10.30;91.50;;;;;;5091060;28;20035;-70
2021/12/01 03:34:46;;;;;;;2.40;2.20;;;10.30;91.50;;;;;;5073038;28;20123;-71
2021/12/01 03:37:12;;;;;;;2.65;2.45;;;10.30;91.40;;;;;;5090658;28;20016;-70
2021/12/01 03:39:38;;;;;;;3.47;2.65;;;10.20;91.40;;;;;;5090668;28;20446;-70
2021/12/01 03:42:05;;;;;;;2.97;2.67;;;10.20;91.40;;;;;;5090586;28;20073;-70
2021/12/01 03:44:32;;;;;;;4.32;2.80;;;10.20;91.30;;;;;;5090254;28;21589;-70
2021/12/01 03:46:58;;;;;;;2.28;2.13;;;10.20;91.30;;;;;;5090245;28;20844;-70
2021/12/01 03:49:24;;;;;;;2.60;2.40;;;10.20;91.30;;;;;;5091256;28;20036;-70
2021/12/01 03:51:50;;;;;;;2.60;2.40;;;10.20;91.20;;;;;;5071217;28;20239;-70
2021/12/01 03:54:16;;;;;;;2.63;2.40;;;10.20;91.20;;;;;;5089119;28;20036;-71
2021/12/01 03:56:42;;;;;;;2.85;2.47;;;10.20;91.20;;;;;;5089549;28;20042;-70
2021/12/01 03:59:08;;;;;;;2.67;2.47;;;10.20;91.10;;;;;;5090629;28;20028;-70
2021/12/01 04:01:34;;;;;;;2.50;2.30;;;10.20;91.10;;;;;;5090795;28;20071;-71
2021/12/01 04:04:00;;;;;;;3.42;2.40;;;10.20;91.00;;;;;;5090398;28;20371;-70
2021/12/01 04:06:27;;;;;;;2.85;2.60;;;10.20;91.00;;;;;;5090389;28;20036;-69
2021/12/01 04:08:53;;;;;;;2.60;2.40;;;10.20;91.00;;;;;;5090053;28;20538;-69
2021/12/01 04:11:19;;;;;;;2.75;2.47;;;10.20;90.90;;;;;;5090191;28;20059;-69
2021/12/01 04:13:45;;;;;;;2.85;2.65;;;10.20;90.90;;;;;;5090114;28;20024;-70
2021/12/01 04:16:11;;;;;;;2.70;2.50;;;10.20;90.80;;;;;;5089933;28;20039;-69
2021/12/01 04:18:37;;;;;;;2.65;2.45;;;10.10;90.80;;;;;;5090463;28;20119;-70
2021/12/01 04:21:03;;;;;;;2.75;2.50;;;10.20;90.80;;;;;;5072026;28;20024;-71
2021/12/01 04:23:30;;;;;;;2.90;2.60;;;10.20;90.70;;;;;;5090551;28;20082;-71
2021/12/01 04:25:56;;;;;;;2.75;2.55;;;10.10;90.50;;;;;;5089796;28;20455;-70
2021/12/01 04:28:22;;;;;;;2.92;2.63;;;10.10;90.60;;;;;;5090292;28;20057;-70
2021/12/01 04:30:48;;;;;;;2.58;2.38;;;10.10;90.50;;;;;;5090812;28;20031;-70
2021/12/01 04:33:14;;;;;;;3.75;2.50;;;10.10;90.50;;;;;;5072468;28;20028;-70
2021/12/01 04:35:39;;;;;;;3.42;2.60;;;10.10;90.50;;;;;;5090168;28;20028;-70
2021/12/01 04:38:06;;;;;;;4.00;2.65;;;10.10;90.50;;;;;;5071997;28;20036;-70
2021/12/01 04:40:32;;;;;;;2.50;2.30;;;10.10;90.30;;;;;;5071839;28;20117;-70
2021/12/01 04:42:58;;;;;;;3.00;2.40;;;10.10;90.20;;;;;;5053182;28;20053;-71
2021/12/01 04:45:25;;;;;;;2.50;2.30;;;10.10;90.20;;;;;;5065418;28;20472;-70
2021/12/01 04:47:54;;;;;;;3.08;2.85;;;10.10;90.20;;;;;;5053697;28;20097;-71
2021/12/01 04:50:24;;;;;;;3.33;2.53;;;10.10;90.10;;;;;;5070905;28;20016;-70
2021/12/01 04:52:51;;;;;;;3.15;2.83;;;10.10;90.00;;;;;;5095018;28;20019;-70
2021/12/01 04:55:17;;;;;;;3.42;3.03;;;10.10;89.90;;;;;;5095553;28;20032;-70
2021/12/01 04:57:45;;;;;;;2.90;2.63;;;10.10;89.80;;;;;;5089136;28;20028;-71
2021/12/01 05:00:18;;;;;;;3.17;2.88;;;10.10;89.60;;;;;;5091486;28;20081;-70
2021/12/01 05:02:43;;;;;;;3.63;2.90;;;10.10;89.80;;;;;;5089592;28;20580;-70
2021/12/01 05:05:09;;;;;;;3.28;2.97;;;10.10;89.70;;;;;;5088576;28;20024;-70
2021/12/01 05:07:35;;;;;;;4.18;3.30;;;10.10;89.80;;;;;;5071087;28;20038;-70
2021/12/01 05:10:01;;;;;;;4.05;3.30;;;10.00;89.70;;;;;;5088008;28;20075;-70
2021/12/01 05:12:27;;;;;;;3.58;3.28;;;10.00;89.30;;;;;;5098966;28;20063;-70
2021/12/01 05:14:53;;;;;;;3.72;3.33;;;10.00;89.30;;;;;;5087168;28;20058;-70
2021/12/01 05:17:20;;;;;;;3.75;3.45;;;10.00;89.50;;;;;;5098507;28;20076;-70
2021/12/01 05:19:46;;;;;;;4.45;3.60;;;10.00;89.80;;;;;;5088961;28;20523;-70
2021/12/01 05:22:12;;;;;;;3.92;3.40;;;9.90;90.00;;;;;;5102324;28;20058;-71
2021/12/01 05:24:38;;;;;;;4.35;3.47;;;9.90;90.00;;;;;;5069826;28;20444;-70
2021/12/01 05:27:04;;;;;;;4.32;3.20;;;9.90;90.10;;;;;;5101876;28;20368;-70
2021/12/01 05:29:31;;;;;;;4.60;3.38;;;9.90;90.20;;;;;;5096459;28;20037;-70
2021/12/01 05:31:57;;;;;;;3.53;3.00;;;9.80;90.20;;;;;;5105413;28;20032;-70
2021/12/01 05:34:24;;;;;;;3.05;2.85;;;9.80;90.20;;;;;;5088726;28;20040;-70
2021/12/01 05:36:50;;;;;;;3.33;3.03;;;9.70;90.30;;;;;;5088740;28;20145;-70
2021/12/01 05:39:17;;;;;;;4.90;3.70;;;9.70;90.40;;;;;;5095724;28;20465;-70
2021/12/01 05:41:43;;;;;;;3.35;2.90;;;9.70;90.30;;;;;;5073184;28;20059;-70
2021/12/01 05:44:09;;;;;;;2.72;2.53;;;9.70;90.40;;;;;;5092080;28;20024;-70
2021/12/01 05:46:35;;;;;;;4.88;2.90;;;9.70;90.40;;;;;;5092262;28;20101;-70
2021/12/01 05:49:01;;;;;;;3.05;2.70;;;9.70;90.40;;;;;;5073067;28;20107;-70
2021/12/01 05:51:27;;;;;;;3.20;2.90;;;9.70;90.50;;;;;;5073065;28;20111;-69
2021/12/01 05:53:52;;;;;;;2.67;2.40;;;9.70;90.50;;;;;;5091339;28;20108;-69
2021/12/01 05:56:18;;;;;;;3.33;2.33;;;9.70;90.50;;;;;;5092681;28;20039;-69
2021/12/01 05:58:44;;;;;;;2.83;2.60;;;9.70;90.50;;;;;;5093026;28;20459;-69
2021/12/01 06:01:10;;;;;;;3.58;2.38;;;9.60;90.50;;;;;;5093242;28;20039;-70
2021/12/01 06:03:38;;;;;;;2.70;2.50;;;9.60;90.50;;;;;;5074774;28;20024;-70
2021/12/01 06:06:03;;;;;;;4.70;2.67;;;9.60;90.50;;;;;;5075240;28;20048;-70
2021/12/01 06:08:29;;;;;;;2.67;2.47;;;9.60;90.60;;;;;;5058225;28;20394;-71
2021/12/01 06:10:55;;;;;;;3.80;2.35;;;9.60;90.60;;;;;;5092644;28;20444;-71
2021/12/01 06:13:21;;;;;;;2.65;2.45;;;9.60;90.70;;;;;;5092627;28;20043;-69
2021/12/01 06:15:49;;;;;;;2.78;2.25;;;9.60;90.70;;;;;;5058622;28;20460;-68
2021/12/01 06:18:16;;;;;;;2.83;2.05;;;9.60;90.70;;;;;;5074552;28;20155;-69
2021/12/01 06:20:42;;;;;;;2.30;1.75;;;9.60;90.70;;;;;;5074907;28;20122;-70
2021/12/01 06:23:08;;;;;;;2.00;1.90;;;9.50;90.70;;;;;;5108459;28;20111;-70
2021/12/01 06:25:34;;;;;;;2.22;2.00;;;9.50;90.70;;;;;;5074744;28;20082;-70
2021/12/01 06:28:00;;;;;;;3.83;1.42;;;9.50;90.80;;;;;;5092600;28;20069;-70
2021/12/01 06:30:26;;;;;;;2.95;1.92;;;9.50;90.70;;;;;;5092783;28;20028;-71
2021/12/01 06:32:53;;;;;;;1.80;1.70;;;9.50;90.70;;;;;;5074508;28;20097;-70
2021/12/01 06:35:20;;;;;;;1.55;1.40;;;9.50;90.70;;;;;;5092308;28;20039;-70
2021/12/01 06:37:46;;;;;;;1.67;1.45;;;9.50;90.70;;;;;;5092769;28;20129;-72
2021/12/01 06:40:14;;;;;;;1.58;1.33;;;9.50;90.70;;;;;;5091964;28;20115;-70
2021/12/01 06:42:40;;;;;;;1.50;1.40;;;9.50;90.70;;;;;;5093198;28;20028;-70
2021/12/01 06:45:08;;;;;;;2.17;1.60;;;9.50;90.70;;;;;;5092392;28;20038;-70
2021/12/01 06:47:34;;;;;;;1.50;1.30;;;9.50;90.80;;;;;;5092972;28;20032;-70
2021/12/01 06:50:01;;;;;;;1.30;1.20;;;9.50;90.80;;;;;;5091866;28;20097;-70
2021/12/01 06:52:29;;;;;;;1.60;1.20;;;9.50;90.80;;;;;;5057666;28;20105;-70
2021/12/01 06:54:57;;;;;;;1.65;1.30;;;9.50;90.90;;;;;;5091400;28;20479;-70
2021/12/01 06:57:23;;;;;;;1.40;1.30;;;9.50;90.80;;;;;;5092427;28;20055;-70
2021/12/01 06:59:49;;;;;;;1.85;1.30;;;9.50;90.80;;;;;;5091861;28;20074;-70
2021/12/01 07:02:17;;;;;;;1.48;1.38;;;9.50;90.80;;;;;;5092546;28;20055;-70
2021/12/01 07:04:43;;;;;;;1.30;1.20;;;9.50;90.80;;;;;;5074078;28;20052;-70
2021/12/01 07:07:09;;;;;;;1.90;1.45;;;9.50;90.90;;;;;;5092193;28;20567;-70
2021/12/01 07:09:35;;;;;;;1.50;1.40;;;9.50;90.90;;;;;;5092083;28;20131;-70
2021/12/01 07:12:01;;;;;;;1.50;1.40;;;9.60;90.90;;;;;;5073276;28;20028;-70
2021/12/01 07:14:27;;;;;;;1.45;1.35;;;9.50;90.90;;;;;;5091936;28;20093;-70
2021/12/01 07:16:54;;;;;;;2.08;1.30;;;9.50;91.00;;;;;;5057138;28;20101;-70
2021/12/01 07:19:20;;;;;;;1.60;1.50;;;9.50;91.00;;;;;;5091799;28;20097;-70
2021/12/01 07:21:47;;;;;;;1.83;1.60;;;9.50;91.00;;;;;;5091978;28;20028;-70
2021/12/01 07:24:13;;;;;;;1.50;1.40;;;9.50;91.10;;;;;;5073501;28;20031;-70
2021/12/01 07:26:39;;;;;;;1.40;1.30;;;9.50;91.10;;;;;;5073053;28;20027;-70
2021/12/01 07:29:05;;;;;;;1.67;1.42;;;9.50;91.10;;;;;;5072208;28;20028;-70
2021/12/01 07:31:31;;;;;;;1.88;1.77;;;9.50;91.20;;;;;;5072728;28;20065;-70
2021/12/01 07:33:57;;;;;;;2.33;1.85;;;9.50;91.20;;;;;;5090461;28;20081;-70
2021/12/01 07:36:23;;;;;;;1.70;1.60;;;9.50;91.20;;;;;;5091447;28;20039;-70
2021/12/01 07:38:50;;;;;;;2.20;2.10;;;9.50;91.30;;;;;;5057113;28;20032;-70
2021/12/01 07:41:17;;;;;;;1.70;1.60;;;9.50;91.30;;;;;;5090978;28;20058;-72
2021/12/01 07:43:43;;;;;;;2.10;1.85;;;9.50;91.30;;;;;;5091805;28;20499;-72
2021/12/01 07:46:09;;;;;;;2.13;1.92;;;9.50;91.30;;;;;;5091099;28;20395;-72
2021/12/01 07:48:36;;;;;;;2.00;1.80;;;9.50;91.30;;;;;;5091434;28;20028;-70
2021/12/01 07:51:03;;;;;;;5.75;2.10;;;9.50;91.30;;;;;;5091312;28;20538;-69
2021/12/01 07:53:29;;;;;;;2.10;1.77;;;9.50;91.40;;;;;;5090930;28;20059;-70
2021/12/01 07:55:54;;;;;;;2.30;2.10;;;9.50;91.40;;;;;;5072706;28;20109;-69
2021/12/01 07:58:20;;;;;;;2.88;2.58;;;9.60;91.40;;;;;;5091146;28;20039;-69
2021/12/01 08:00:46;;;;;;;2.60;2.40;;;9.60;91.40;;;;;;5089857;28;20028;-69
2021/12/01 08:03:12;;;;;;;3.05;2.75;;;9.60;91.40;;;;;;5089446;28;20101;-69
2021/12/01 08:05:38;;;;;;;3.03;2.78;;;9.60;91.40;;;;;;5091011;28;20105;-69
2021/12/01 08:08:05;;;;;;;4.28;3.38;;;9.60;91.50;;;;;;5091518;28;20115;-69
2021/12/01 08:10:31;;;;;;;3.85;3.53;;;9.60;91.50;;;;;;5071793;28;20028;-69
2021/12/01 08:13:00;;;;;;;4.80;4.00;;;9.60;91.50;;;;;;5072800;28;20028;-68
2021/12/01 08:15:26;;;;;;;4.80;3.95;;;9.60;91.50;;;;;;5090760;28;20467;-68
2021/12/01 08:17:52;;;;;;;4.95;4.55;;;9.60;91.50;;;;;;5090537;28;20043;-67
2021/12/01 08:20:19;;;;;;;4.65;4.25;;;9.70;91.50;;;;;;5061788;28;20119;-69
2021/12/01 08:22:46;;;;;;;5.15;4.65;;;9.70;91.50;;;;;;5091033;28;20055;-69
2021/12/01 08:25:12;;;;;;;5.30;4.72;;;9.70;91.50;;;;;;5089510;28;20447;-68
2021/12/01 08:27:38;;;;;;;9.10;6.18;;;9.70;91.40;;;;;;5090311;28;20036;-69
2021/12/01 08:30:06;;;;;;;5.32;4.90;;;9.80;91.40;;;;;;5092647;28;20052;-72
2021/12/01 08:32:32;;;;;;;5.57;5.05;;;9.80;91.40;;;;;;5089563;28;20043;-70
2021/12/01 08:34:58;;;;;;;5.43;4.95;;;9.80;91.30;;;;;;5098789;28;20063;-70
2021/12/01 08:37:24;;;;;;;6.03;5.53;;;9.80;91.30;;;;;;5102621;28;20680;-75
2021/12/01 08:39:50;;;;;;;5.35;4.85;;;9.80;91.30;;;;;;5089507;28;20042;-72
2021/12/01 08:42:21;;;;;;;6.45;5.32;;;9.80;91.30;;;;;;5091251;28;20104;-71
2021/12/01 08:44:48;;;;;;;6.13;5.50;;;9.80;91.30;;;;;;5075297;28;20028;-70
2021/12/01 08:47:16;;;;;;;6.10;5.50;;;9.80;91.20;;;;;;5071602;28;20058;-70
2021/12/01 08:49:43;;;;;;;6.20;5.47;;;9.80;91.10;;;;;;5102214;28;20450;-70
2021/12/01 08:52:09;;;;;;;6.40;5.55;;;9.90;91.20;;;;;;5099676;28;20089;-71
2021/12/01 08:54:35;;;;;;;6.40;5.80;;;9.90;91.20;;;;;;5081634;28;20027;-74
2021/12/01 08:57:01;;;;;;;7.22;5.93;;;9.90;91.40;;;;;;5070637;28;20036;-70
2021/12/01 08:59:27;;;;;;;8.10;5.78;;;9.90;91.20;;;;;;5092441;28;20114;-68
2021/12/01 09:01:52;;;;;;;6.50;5.90;;;9.90;91.20;;;;;;5089868;28;20028;-66
2021/12/01 09:04:19;;;;;;;6.57;5.97;;;9.90;91.20;;;;;;5093689;28;20136;-68
2021/12/01 09:06:45;;;;;;;6.78;6.10;;;10.00;91.20;;;;;;5101167;28;20072;-67
2021/12/01 09:09:18;;;;;;;7.13;6.43;;;10.00;91.20;;;;;;5093153;28;20027;-73
2021/12/01 09:11:53;;;;;;;6.70;5.97;;;10.00;91.10;;;;;;5071401;28;20039;-72
2021/12/01 09:14:23;;;;;;;7.68;6.70;;;10.00;91.10;;;;;;5094745;28;20115;-68
2021/12/01 09:16:49;;;;;;;8.43;5.60;;;10.00;91.10;;;;;;5087683;28;20031;-69
2021/12/01 09:19:15;;;;;;;6.60;5.97;;;10.00;91.10;;;;;;5089205;28;20085;-69
2021/12/01 09:21:41;;;;;;;6.28;5.68;;;10.00;91.10;;;;;;5089412;28;20036;-71
2021/12/01 09:24:07;;;;;;;7.88;5.20;;;10.00;91.10;;;;;;5071227;28;20046;-73
2021/12/01 09:26:33;;;;;;;7.18;5.00;;;10.00;91.10;;;;;;5090213;28;20056;-78
2021/12/01 09:28:59;;;;;;;5.32;4.03;;;9.90;91.00;;;;;;5089828;28;20343;-70
2021/12/01 09:31:25;;;;;;;6.88;3.25;;;9.90;90.90;;;;;;5089787;28;20055;-73
2021/12/01 09:33:50;;;;;;;6.07;2.58;;;9.90;90.80;;;;;;5071025;28;20060;-70
2021/12/01 09:36:17;;;;;;;6.13;2.38;;;9.90;90.70;;;;;;5086793;28;20056;-69
2021/12/01 09:38:43;;;;;;;7.53;2.50;;;9.90;90.60;;;;;;5088370;28;20024;-68
2021/12/01 09:41:09;;;;;;;12.32;3.03;;;9.90;90.60;;;;;;5070682;28;20020;-66
2021/12/01 09:43:35;;;;;;;9.48;2.15;;;9.90;90.30;;;;;;5089531;28;20042;-71
2021/12/01 09:46:04;;;;;;;6.20;2.40;;;9.90;90.30;;;;;;5089037;28;20028;-72
2021/12/01 09:48:32;;;;;;;6.28;2.00;;;9.80;90.20;;;;;;5071616;28;20130;-72
2021/12/01 09:50:58;;;;;;;10.07;3.00;;;9.80;90.30;;;;;;5071148;28;20082;-70
2021/12/01 09:53:23;;;;;;;8.27;2.08;;;9.80;90.20;;;;;;5087716;28;20035;-68
2021/12/01 09:55:49;;;;;;;7.90;2.20;;;9.80;90.20;;;;;;5088260;28;20064;-66
2021/12/01 09:58:17;;;;;;;8.00;2.40;;;9.80;90.20;;;;;;5071294;28;20028;-65
2021/12/01 10:00:50;;;;;;;7.90;2.20;;;9.80;90.30;;;;;;5089537;28;20016;-67
2021/12/01 10:03:16;;;;;;;;;;;9.90;90.20;;;;;;5071518;28;20032;-68
2021/12/01 10:05:49;;;;;;;9.93;1.83;;;9.90;90.10;;;;;;5088508;28;19908;-67
2021/12/01 10:08:20;;;;;;;8.18;1.90;;;9.80;90.00;;;;;;5071350;28;20043;-68
2021/12/01 10:10:46;;;;;;;8.48;2.33;;;9.80;90.10;;;;;;5089120;28;20022;-66
2021/12/01 10:13:11;;;;;;;10.00;2.20;;;9.90;90.10;;;;;;5089028;28;20107;-68
2021/12/01 10:15:37;;;;;;;8.90;2.30;;;10.00;90.20;;;;;;5089477;28;20127;-67
2021/12/01 10:18:12;;;;;;;9.48;2.03;;;10.40;89.60;;;;;;5067277;28;20048;-68
2021/12/01 10:20:38;;;;;;;7.30;1.55;;;10.70;88.40;;;;;;5052064;28;20533;-70
2021/12/01 10:23:10;;;;;;;13.70;2.55;;;10.80;86.40;;;;;;5049896;28;20048;-69
2021/12/01 10:25:36;;;;;;;7.57;2.05;;;10.70;85.80;;;;;;5054278;28;20070;-69
2021/12/01 10:28:01;;;;;;;7.15;1.50;;;10.60;86.10;;;;;;5051638;28;20029;-69
2021/12/01 10:30:43;;;;;;;6.05;1.60;;;10.40;86.20;;;;;;5060906;28;20033;-69
2021/12/01 10:33:12;;;;;;;8.07;1.52;;;10.30;86.80;;;;;;5051617;28;20480;-69
2021/12/01 10:35:38;;;;;;;7.70;1.65;;;10.20;87.60;;;;;;5052537;28;20480;-69
2021/12/01 10:38:06;;;;;;;6.25;1.80;;;10.20;87.20;;;;;;5052879;28;20059;-70
2021/12/01 10:40:32;;;;;;;6.15;1.45;;;10.10;87.20;;;;;;5052594;28;20029;-70
2021/12/01 10:43:05;;;;;;;8.60;1.45;;;10.10;87.20;;;;;;5051831;28;20067;-69
2021/12/01 10:45:35;;;;;;;6.75;1.45;;;10.10;87.50;;;;;;5052722;28;20437;-69
2021/12/01 10:48:03;;;;;;;6.60;1.17;;;10.10;88.00;;;;;;5060019;28;20033;-69
2021/12/01 10:50:32;;;;;;;7.20;1.10;;;10.20;87.60;;;;;;5052703;28;20047;-70
2021/12/01 10:53:08;;;;;;;2.60;0.63;;;10.20;87.30;;;;;;5052299;28;20025;-70
2021/12/01 10:55:48;;;;;;;4.70;1.13;;;10.20;87.20;;;;;;5050926;28;20037;-70
2021/12/01 10:58:15;;;;;;;4.13;0.70;;;10.20;86.40;;;;;;5054720;28;20040;-69
2021/12/01 11:00:47;;;;;;;2.38;0.75;;;10.10;86.30;;;;;;5047707;28;20504;-68
2021/12/01 11:03:13;;;;;;;;;;;10.20;86.00;;;;;;5052402;28;20036;-69
2021/12/01 11:05:47;;;;;;;2.63;1.00;;;10.20;85.90;;;;;;5050631;28;19921;-69
2021/12/01 11:08:18;;;;;;;7.45;1.27;;;10.20;85.70;;;;;;5051455;28;20083;-68
2021/12/01 11:10:46;;;;;;;3.15;0.80;;;10.10;85.70;;;;;;5048963;28;20060;-69
2021/12/01 11:13:12;;;;;;;3.35;0.98;;;10.10;85.70;;;;;;5051112;28;20410;-69
2021/12/01 11:15:41;;;;;;;5.32;0.98;;;10.10;86.00;;;;;;5033163;28;20060;-69
2021/12/01 11:18:15;;;;;;;4.07;1.00;;;10.10;85.90;;;;;;5066216;28;20752;-69
2021/12/01 11:20:46;;;;;;;4.90;1.13;;;10.10;85.60;;;;;;5086402;28;20024;-68
2021/12/01 11:23:31;;;;;;;5.43;1.27;;;10.10;85.30;;;;;;5070042;28;20031;-68
2021/12/01 11:26:15;;;;;;;4.85;2.00;;;10.00;85.20;;;;;;5098733;28;20070;-68
2021/12/01 11:28:48;;;;;;;9.75;6.35;;;10.00;85.30;;;;;;5089256;28;20107;-69
2021/12/01 11:31:24;;;;;;;22.52;15.27;;;10.00;85.70;;;;;;5090577;28;20052;-68
2021/12/01 11:33:55;;;;;;;5.90;2.58;;;10.00;85.40;;;;;;5094735;28;20055;-69
2021/12/01 11:36:32;;;;;;;6.65;1.50;;;10.00;85.40;;;;;;5090126;28;20088;-68
2021/12/01 11:39:02;;;;;;;6.38;1.50;;;10.00;85.70;;;;;;5089285;28;20156;-69
2021/12/01 11:41:28;;;;;;;7.70;1.23;;;10.00;85.20;;;;;;5072567;28;20572;-68
2021/12/01 11:43:56;;;;;;;8.68;1.23;;;9.90;84.50;;;;;;5090119;28;20134;-69
2021/12/01 11:46:22;;;;;;;9.10;2.00;;;9.90;84.40;;;;;;5071670;28;20722;-69
2021/12/01 11:48:59;;;;;;;5.25;1.10;;;9.90;84.40;;;;;;5086203;28;20084;-69
2021/12/01 11:51:31;;;;;;;6.65;1.30;;;9.90;84.70;;;;;;5089447;28;20036;-68
2021/12/01 11:54:12;;;;;;;5.90;1.35;;;9.90;84.70;;;;;;5089823;28;20039;-68
2021/12/01 11:56:46;;;;;;;7.38;1.33;;;9.90;85.00;;;;;;5069977;28;20036;-69
2021/12/01 11:59:15;;;;;;;5.78;1.85;;;9.90;85.10;;;;;;5071134;28;20028;-69
2021/12/01 12:01:59;;;;;;;5.72;1.65;;;9.90;85.20;;;;;;5089123;28;20043;-69
2021/12/01 12:04:37;;;;;;;6.30;1.02;;;9.90;84.60;;;;;;5088909;28;20421;-69
2021/12/01 12:07:15;;;;;;;5.35;1.20;;;9.90;84.60;;;;;;5087382;28;20485;-68
2021/12/01 12:09:41;;;;;;;7.15;1.40;;;9.90;84.50;;;;;;5086819;28;21844;-68
2021/12/01 12:12:20;;;;;;;7.45;1.40;;;9.90;84.40;;;;;;5086534;28;20192;-68
2021/12/01 12:14:46;;;;;;;5.60;1.08;;;9.90;84.80;;;;;;5102762;28;20059;-69
2021/12/01 12:17:20;;;;;;;9.43;1.40;;;9.90;84.60;;;;;;5086816;28;20074;-68
2021/12/01 12:20:03;;;;;;;4.43;1.20;;;9.90;84.50;;;;;;5087120;28;20126;-68
2021/12/01 12:25:01;;;;;;;4.10;1.23;;;10.00;84.40;;;;;;5090583;28;20036;-68
2021/12/01 12:27:38;;;;;;;9.52;1.95;;;10.00;84.30;;;;;;5098074;28;20031;-68
2021/12/01 12:30:14;;;;;;;7.70;2.60;;;10.00;84.10;;;;;;5095858;28;20088;-68
2021/12/01 12:32:42;;;;;;;12.45;1.92;;;10.00;84.50;;;;;;5088843;28;20043;-67
2021/12/01 12:35:16;;;;;;;25.35;17.25;;;10.00;84.00;;;;;;5088940;28;20722;-69
2021/12/01 12:37:43;;;;;;;9.75;4.20;;;10.00;84.40;;;;;;5109647;28;20039;-68
2021/12/01 12:40:20;;;;;;;10.05;1.88;;;10.10;84.40;;;;;;5078595;28;20024;-68
2021/12/01 12:43:24;;;;;;;15.70;5.15;;;10.20;83.80;;;;;;5089068;28;20034;-68
2021/12/01 12:46:19;;;;;;;8.68;2.15;;;10.20;83.10;;;;;;4986059;28;20106;-68
2021/12/01 12:48:45;;;;;;;12.23;1.70;;;10.30;83.10;;;;;;4986238;28;20046;-68
2021/12/01 12:51:29;;;;;;;10.45;1.85;;;10.30;82.20;;;;;;5056887;28;20040;-68
2021/12/01 12:54:10;;;;;;;8.90;1.83;;;10.30;82.00;;;;;;5081485;28;20506;-69
2021/12/01 12:56:37;;;;;;;7.63;1.50;;;10.20;82.50;;;;;;5075981;28;20031;-69
2021/12/01 12:59:21;;;;;;;8.45;2.00;;;10.20;82.70;;;;;;5079426;28;20039;-69
2021/12/01 13:02:09;;;;;;;7.70;1.60;;;10.10;82.90;;;;;;5088552;28;20026;-69
2021/12/01 13:04:47;;;;;;;8.23;1.45;;;10.20;83.30;;;;;;5086778;28;20082;-69